Latest Coastal Weather Observations for Point Fawcett

IDD60701

Issued at 5:51 pm CST Friday 18 September 2020 (issued every 10 minutes, with the page automatically refreshed every 10 minutes)

About coastal observations | Map of coastal stations | Coastal observations for NT | Marine services | Other Formats
Station Details ID: 200731 Name: POINT FAWCETT Lat: -11.76 Lon: 130.03 Height: 6.5 m
Data from the previous 72 hours. | See also: Recent months at Point Fawcett
Date/Time
CST
Wind Sea
Height
m
Swell Vis
km
Cloud Weather Temp
°C
Press
hPa
Rain since
9am
mm
Dir  Spd
kts
Gust
kts
Height
m
Period
s
Dir
18/05:30pm NW 1 6 - - - - - - - 28.2 1010.3 0.0
18/05:00pm W 4 6 - - - - - - - 28.7 1010.4 0.0
18/04:30pm W 6 8 - - - - - - - 29.3 1010.4 0.0
18/04:00pm W 6 10 - - - - - - - 30.2 1010.4 0.0
18/03:30pm W 8 10 - - - - - - - 30.5 1010.6 0.0
18/03:00pm SW 10 13 - - - - - - - 31.1 1010.6 0.0
18/02:30pm SE 3 7 - - - - - - - 31.3 1011.1 0.0
18/02:00pm SE 4 8 - - - - - - - 30.1 1011.6 0.0
18/01:30pm S 8 15 - - - - - - - 29.5 1011.8 0.0
18/01:00pm SSE 6 11 - - - - - - - 30.5 1012.3 0.0
18/12:30pm N 3 7 - - - - - - - 30.6 1012.9 0.0
18/12:00pm WNW 5 6 - - - - - - - 30.4 1013.4 0.0
18/11:30am WNW 7 8 - - - - - - - 30.2 1014.0 0.0
18/11:00am WNW 8 9 - - - - - - - 29.7 1014.3 0.0
18/10:30am NE 6 10 - - - - - - - 31.4 1014.5 0.0
18/10:00am ENE 6 9 - - - - - - - 30.7 1014.6 0.0
18/09:30am ENE 6 9 - - - - - - - 30.1 1014.5 0.0
18/09:00am ENE 5 9 - - - - - - - 29.2 1014.3 1.2
18/08:30am NE 4 7 - - - - - - - 28.1 1014.1 1.2
18/08:00am E 2 5 - - - - - - - 26.0 1013.8 1.2
18/07:30am E 3 5 - - - - - - - 23.6 1013.5 1.2
18/07:00am ESE 3 4 - - - - - - - 22.1 1013.1 1.2
18/06:30am E 4 5 - - - - - - - 23.1 1012.7 1.2
18/06:00am E 4 5 - - - - - - - 22.6 1012.2 1.2
18/05:30am ESE 4 5 - - - - - - - 22.5 1011.9 1.2
18/05:00am E 4 6 - - - - - - - 23.0 1011.7 1.2
18/04:30am ESE 4 5 - - - - - - - 22.9 1011.5 1.2
18/04:00am ESE 3 4 - - - - - - - 23.2 1011.4 1.2
18/03:30am ESE 3 5 - - - - - - - 23.5 1011.5 1.2
18/03:00am SE 3 4 - - - - - - - 23.5 1011.5 1.2
18/02:30am ESE 3 4 - - - - - - - 23.6 1011.6 1.2
18/02:00am ENE 1 4 - - - - - - - 23.6 1011.6 1.2
18/01:30am CALM 0 0 - - - - - - - 23.7 1011.8 1.2
18/01:00am CALM 0 0 - - - - - - - 23.8 1012.2 1.2
18/12:30am CALM 0 0 - - - - - - - 23.9 1012.5 1.2
18/12:00am CALM 0 0 - - - - - - - 24.1 1012.6 1.2
 
Date/Time
CST
Wind Sea
Height
m
Swell Vis
km
Cloud Weather Temp
°C
Press
hPa
Rain since
9am
mm
Dir  Spd
kts
Gust
kts
Height
m
Period
s
Dir
17/11:30pm CALM 0 3 - - - - - - - 24.6 1013.0 1.2
17/11:00pm CALM 0 0 - - - - - - - 25.4 1013.0 1.2
17/10:30pm N 5 8 - - - - - - - 26.7 1012.9 1.2
17/10:00pm N 5 8 - - - - - - - 26.8 1012.9 1.2
17/09:30pm N 7 8 - - - - - - - 27.0 1012.7 1.2
17/09:00pm N 6 7 - - - - - - - 27.1 1012.4 1.2
17/08:30pm N 6 8 - - - - - - - 27.2 1012.1 1.2
17/08:00pm NNW 7 9 - - - - - - - 27.3 1011.9 1.2
17/07:30pm NNW 6 9 - - - - - - - 27.4 1011.6 1.2
17/07:00pm NW 7 9 - - - - - - - 27.5 1011.2 1.2
17/06:30pm NW 7 9 - - - - - - - 27.7 1011.1 1.2
17/06:00pm WNW 6 8 - - - - - - - 28.2 1010.9 1.2
17/05:30pm W 4 6 - - - - - - - 28.8 1010.9 1.2
17/05:00pm WSW 3 5 - - - - - - - 28.8 1010.8 1.2
17/04:30pm WSW 3 5 - - - - - - - 28.9 1010.8 1.2
17/04:00pm SW 5 7 - - - - - - - 29.0 1010.8 1.2
17/03:30pm SW 5 8 - - - - - - - 28.7 1011.1 1.2
17/03:00pm SW 3 6 - - - - - - - 28.8 1011.2 1.2
17/02:30pm SSW 3 5 - - - - - - - 30.0 1011.6 0.6
17/02:00pm SW 8 11 - - - - - - - 30.0 1012.0 0.0
17/01:30pm WSW 5 9 - - - - - - - 30.4 1012.3 0.0
17/01:00pm W 5 8 - - - - - - - 30.2 1012.8 0.0
17/12:30pm WNW 6 9 - - - - - - - 30.9 1013.2 0.0
17/12:00pm NNW 6 8 - - - - - - - 30.6 1013.6 0.0
17/11:30am NW 7 9 - - - - - - - 30.6 1014.0 0.0
17/11:00am E 5 9 - - - - - - - 32.5 1014.3 0.0
17/10:30am ENE 6 13 - - - - - - - 30.4 1014.4 0.0
17/10:00am ENE 5 10 - - - - - - - 30.0 1014.5 0.0
17/09:30am ESE 4 8 - - - - - - - 28.5 1014.4 0.0
17/09:00am E 4 8 - - - - - - - 27.3 1014.1 0.0
17/08:30am E 5 7 - - - - - - - 26.5 1014.0 0.0
17/08:00am E 4 6 - - - - - - - 25.4 1013.7 0.0
17/07:30am E 4 5 - - - - - - - 24.5 1013.4 0.0
17/07:00am E 4 6 - - - - - - - 23.9 1013.0 0.0
17/06:30am E 4 6 - - - - - - - 23.7 1012.6 0.0
17/06:00am E 5 6 - - - - - - - 23.7 1012.2 0.0
17/05:30am ESE 4 5 - - - - - - - 23.7 1012.2 0.0
17/05:00am E 4 6 - - - - - - - 23.8 1011.9 0.0
17/04:30am E 5 6 - - - - - - - 23.5 1011.6 0.0
17/04:00am E 4 5 - - - - - - - 23.0 1011.6 0.0
17/03:30am E 4 4 - - - - - - - 22.9 1011.5 0.0
17/03:00am ESE 3 4 - - - - - - - 23.2 1011.6 0.0
17/02:30am E 3 4 - - - - - - - 23.1 1011.7 0.0
17/02:00am SE 2 3 - - - - - - - 23.5 1011.9 0.0
17/01:30am SE 3 4 - - - - - - - 23.7 1012.4 0.0
17/01:00am SE 3 4 - - - - - - - 24.1 1012.9 0.0
17/12:30am SSE 3 4 - - - - - - - 24.2 1013.4 0.0
17/12:00am ESE 3 4 - - - - - - - 24.5 1013.6 0.0
 
Date/Time
CST
Wind Sea
Height
m
Swell Vis
km
Cloud Weather Temp
°C
Press
hPa
Rain since
9am
mm
Dir  Spd
kts
Gust
kts
Height
m
Period
s
Dir
16/11:30pm NE 4 6 - - - - - - - 25.8 1013.6 0.0
16/11:00pm NE 4 6 - - - - - - - 26.0 1013.6 0.0
16/10:30pm NNE 5 6 - - - - - - - 26.4 1013.4 0.0
16/10:00pm NNE 7 11 - - - - - - - 26.8 1013.2 0.0
16/09:30pm NNE 7 9 - - - - - - - 27.0 1013.0 0.0
16/09:00pm NNE 7 11 - - - - - - - 27.2 1012.7 0.0
16/08:30pm N 7 10 - - - - - - - 27.5 1012.5 0.0
16/08:00pm NNE 8 12 - - - - - - - 27.7 1012.0 0.0
16/07:30pm N 10 14 - - - - - - - 28.0 1011.6 0.0
16/07:00pm N 11 14 - - - - - - - 28.3 1011.1 0.0
16/06:30pm N 10 15 - - - - - - - 28.7 1010.7 0.0
16/06:00pm N 10 15 - - - - - - - 29.6 1010.6 0.0
16/05:30pm NNW 13 17 - - - - - - - 29.5 1010.4 0.0
16/05:00pm NNW 13 17 - - - - - - - 29.8 1010.5 0.0
16/04:30pm NNW 12 17 - - - - - - - 30.4 1010.5 0.0
16/04:00pm NW 11 15 - - - - - - - 31.2 1010.8 0.0
16/03:30pm NW 11 14 - - - - - - - 31.4 1011.0 0.0
16/03:00pm NNW 12 16 - - - - - - - 30.8 1011.1 0.0
16/02:30pm NNW 12 16 - - - - - - - 31.6 1011.4 0.0
16/02:00pm N 9 14 - - - - - - - 32.5 1011.8 0.0
16/01:30pm ESE 8 13 - - - - - - - 32.3 1012.0 0.0
16/01:00pm SE 8 13 - - - - - - - 32.7 1012.4 0.0
16/12:30pm ESE 8 13 - - - - - - - 32.3 1012.9 0.0
16/12:00pm ESE 6 10 - - - - - - - 33.4 1013.3 0.0
16/11:30am ESE 7 13 - - - - - - - 31.7 1013.9 0.0
16/11:00am SE 8 16 - - - - - - - 31.5 1014.1 0.0
16/10:30am ESE 8 14 - - - - - - - 31.0 1014.5 0.0
16/10:00am SE 6 11 - - - - - - - 30.6 1014.6 0.0
16/09:30am E 5 9 - - - - - - - 30.0 1014.6 0.0
16/09:00am E 4 7 - - - - - - - 29.0 1014.4 0.0
16/08:30am ENE 4 7 - - - - - - - 27.5 1014.4 0.0
16/08:00am ESE 1 5 - - - - - - - 25.6 1014.2 0.0
16/07:30am ESE 3 4 - - - - - - - 22.1 1013.7 0.0
16/07:00am E 4 5 - - - - - - - 21.0 1013.2 0.0
16/06:30am E 3 4 - - - - - - - 20.7 1012.9 0.0
16/06:00am ESE 3 4 - - - - - - - 21.1 1012.5 0.0
16/05:30am ESE 3 4 - - - - - - - 20.6 1012.4 0.0
16/05:00am SE 4 5 - - - - - - - 20.8 1012.3 0.0
16/04:30am ESE 3 5 - - - - - - - 20.9 1012.1 0.0
16/04:00am ESE 4 5 - - - - - - - 21.2 1012.0 0.0
16/03:30am ESE 3 4 - - - - - - - 21.2 1012.1 0.0
16/03:00am ESE 4 5 - - - - - - - 21.3 1012.0 0.0
16/02:30am ESE 4 4 - - - - - - - 21.5 1012.4 0.0
16/02:00am ESE 4 5 - - - - - - - 21.5 1012.8 0.0
16/01:30am ESE 4 5 - - - - - - - 21.6 1013.1 0.0
16/01:00am E 4 6 - - - - - - - 22.7 1013.3 0.0
16/12:30am ESE 4 6 - - - - - - - 21.5 1013.7 0.0
16/12:00am SE 3 4 - - - - - - - 21.6 1013.5 0.0
 
Date/Time
CST
Wind Sea
Height
m
Swell Vis
km
Cloud Weather Temp
°C
Press
hPa
Rain since
9am
mm
Dir  Spd
kts
Gust
kts
Height
m
Period
s
Dir
15/11:30pm SE 4 4 - - - - - - - 21.7 1013.7 0.0
15/11:00pm SSE 3 4 - - - - - - - 22.1 1013.5 0.0
15/10:30pm CALM 0 0 - - - - - - - 22.5 1013.6 0.0
15/10:00pm ESE 3 4 - - - - - - - 23.0 1013.3 0.0
15/09:30pm E 2 4 - - - - - - - 24.1 1013.0 0.0
15/09:00pm ENE 4 8 - - - - - - - 25.5 1012.6 0.0
15/08:30pm ESE 2 3 - - - - - - - 25.6 1012.2 0.0
15/08:00pm NE 2 6 - - - - - - - 27.2 1011.8 0.0
15/07:30pm ENE 4 7 - - - - - - - 27.8 1011.4 0.0
15/07:00pm NE 5 10 - - - - - - - 28.6 1011.0 0.0
15/06:30pm NE 8 11 - - - - - - - 29.4 1010.3 0.0
15/06:00pm NNW 9 13 - - - - - - - 29.4 1010.2 0.0

Other formats

Comma delimited format used in spreadsheet applications
http://www.bom.gov.au/fwo/IDD60701/IDD60701.94122.axf

JavaScript Object Notation format (JSON) in row-major order
http://www.bom.gov.au/fwo/IDD60701/IDD60701.94122.json

Data quality

Most of these data are generated automatically and are frequently updated. Quality checks on data are not normally performed. It is possible for incorrect values to appear. Refer to information at About Latest Weather Observations and please check the disclaimer before using these data.